Terminal Aerodrome Forecast
Issued by NWS Knoxville/Tri Cities, TN

Home | Current Version | Previous Version | Text Only | Print | Product List | Glossary On
Versions: 1 2 3 4 5 6 7 8 9 10 11 12 13 14 15 16 17 18 19 20 21 22 23 24 25
000
FTUS44 KMRX 211124
TAFTYS
TAF
KTYS 211124Z 2112/2212 VRB03KT P6SM FEW090
     FM211400 23009KT P6SM SCT040 BKN250
     FM211800 25013G19KT P6SM VCTS BKN040CB
      TEMPO 2120/2124 3SM SHRA BR BKN035 OVC100
     FM220200 32008KT P6SM SCT035 BKN070
     FM220600 36003KT P6SM SCT030=

USA.gov is the U.S. government's official web portal to all federal, state and local government web resources and services.